Time;durP1;ratioP1;P1;durP2;ratioP2;P2;SDS_P1;SDS_P2;PMS_P1;PMS_P2;Temp;Humidity;BMP_temperature;BMP_pressure;BME280_temperature;BME280_humidity;BME280_pressure;Samples;Min_cycle;Max_cycle;Signal;HPM_P1;HPM_P2
2023/04/29 00:00:43;;;;;;;10.95;4.32;;;13.30;83.70;;;;;;6127571;23;20437;-67
2023/04/29 00:03:09;;;;;;;9.27;5.32;;;13.30;83.50;;;;;;6127466;23;20017;-67
2023/04/29 00:05:35;;;;;;;7.05;5.50;;;13.20;83.40;;;;;;6127248;23;20451;-67
2023/04/29 00:08:00;;;;;;;9.38;5.20;;;13.20;83.80;;;;;;6127103;23;20050;-67
2023/04/29 00:10:26;;;;;;;11.40;5.78;;;13.20;84.30;;;;;;6127005;23;20436;-67
2023/04/29 00:12:53;;;;;;;7.88;5.25;;;13.20;84.70;;;;;;6127031;23;20002;-66
2023/04/29 00:15:19;;;;;;;7.43;5.25;;;13.10;85.10;;;;;;6127017;23;20508;-68
2023/04/29 00:17:45;;;;;;;10.63;5.22;;;13.10;85.20;;;;;;6127182;23;20094;-68
2023/04/29 00:20:11;;;;;;;8.38;5.65;;;13.10;85.50;;;;;;6127104;23;20320;-67
2023/04/29 00:22:37;;;;;;;10.30;5.60;;;13.10;85.80;;;;;;6127535;23;20011;-67
2023/04/29 00:25:04;;;;;;;10.35;5.85;;;13.00;86.30;;;;;;6127006;23;20072;-67
2023/04/29 00:27:29;;;;;;;8.80;5.22;;;13.00;86.40;;;;;;6127056;23;20072;-67
2023/04/29 00:29:56;;;;;;;7.97;5.78;;;13.00;86.90;;;;;;6126970;23;20029;-67
2023/04/29 00:32:22;;;;;;;9.55;5.78;;;12.90;87.30;;;;;;6127131;23;19999;-67
2023/04/29 00:34:47;;;;;;;7.70;5.32;;;12.90;87.40;;;;;;6127386;23;20148;-67
2023/04/29 00:37:13;;;;;;;9.38;5.72;;;12.90;87.50;;;;;;6126810;23;20436;-67
2023/04/29 00:39:39;;;;;;;12.88;5.40;;;12.90;88.20;;;;;;6126869;23;20077;-67
2023/04/29 00:42:05;;;;;;;8.80;5.75;;;12.90;88.10;;;;;;6126880;23;20006;-68
2023/04/29 00:44:31;;;;;;;8.02;5.28;;;12.80;88.50;;;;;;6127110;23;20008;-68
2023/04/29 00:46:58;;;;;;;9.52;5.40;;;12.80;88.90;;;;;;6127248;23;20006;-68
2023/04/29 00:49:24;;;;;;;8.15;5.30;;;12.80;89.10;;;;;;6126957;23;20002;-69
2023/04/29 00:51:50;;;;;;;7.40;5.30;;;12.80;89.30;;;;;;6126807;23;20056;-68
2023/04/29 00:54:16;;;;;;;8.65;5.40;;;12.70;89.60;;;;;;6125290;23;20010;-68
2023/04/29 00:56:44;;;;;;;9.05;4.93;;;12.70;88.60;;;;;;6126541;23;20006;-68
2023/04/29 00:59:11;;;;;;;10.95;4.25;;;12.70;88.60;;;;;;6123704;23;20014;-68
2023/04/29 01:01:37;;;;;;;6.47;3.72;;;12.80;88.80;;;;;;6123698;23;20057;-69
2023/04/29 01:04:04;;;;;;;5.32;3.22;;;12.70;88.50;;;;;;6123865;23;20105;-68
2023/04/29 01:06:42;;;;;;;8.60;3.00;;;12.80;88.10;;;;;;6126273;23;20333;-67
2023/04/29 01:09:26;;;;;;;13.13;2.92;;;12.80;88.00;;;;;;6126909;23;20032;-67
2023/04/29 01:12:19;;;;;;;8.90;3.08;;;12.80;87.70;;;;;;6126580;23;19998;-68
2023/04/29 01:14:53;;;;;;;9.05;3.25;;;12.80;87.90;;;;;;6125945;23;20052;-68
2023/04/29 01:17:24;;;;;;;5.43;3.15;;;12.80;88.20;;;;;;6126827;23;20107;-68
2023/04/29 01:19:55;;;;;;;8.82;3.30;;;12.70;88.10;;;;;;6126752;23;20385;-68
2023/04/29 01:22:22;;;;;;;6.45;2.92;;;12.70;87.90;;;;;;6126437;23;20032;-67
2023/04/29 01:24:48;;;;;;;6.00;2.85;;;12.80;87.50;;;;;;6126490;23;20089;-68
2023/04/29 01:27:28;;;;;;;4.43;2.90;;;12.80;87.20;;;;;;6126640;23;20364;-67
2023/04/29 01:30:17;;;;;;;5.43;2.80;;;12.80;86.60;;;;;;6126041;23;20029;-68
2023/04/29 01:33:21;;;;;;;5.03;2.60;;;12.80;86.60;;;;;;6126101;23;20496;-68
2023/04/29 01:35:59;;;;;;;10.32;3.75;;;12.80;86.80;;;;;;6099882;23;20005;-67
2023/04/29 01:39:07;;;;;;;6.18;3.40;;;12.80;85.90;;;;;;6126120;23;20009;-68
2023/04/29 01:41:39;;;;;;;10.02;3.85;;;12.70;86.50;;;;;;6099799;23;20010;-67
2023/04/29 01:44:10;;;;;;;7.63;3.95;;;12.70;87.20;;;;;;6125941;23;20010;-67
2023/04/29 01:46:37;;;;;;;5.75;3.53;;;12.80;86.90;;;;;;6126468;23;20068;-67
2023/04/29 01:49:02;;;;;;;6.07;4.18;;;12.70;86.50;;;;;;6126603;23;20037;-66
2023/04/29 01:51:28;;;;;;;4.53;3.60;;;12.70;86.40;;;;;;6126263;23;20022;-68
2023/04/29 01:53:54;;;;;;;5.10;3.38;;;12.70;86.60;;;;;;6126466;23;20025;-67
2023/04/29 01:56:20;;;;;;;5.13;3.30;;;12.70;87.40;;;;;;6126458;23;20087;-67
2023/04/29 01:58:45;;;;;;;7.03;3.10;;;12.70;87.70;;;;;;6126298;23;20074;-67
2023/04/29 02:01:11;;;;;;;4.85;3.20;;;12.60;87.10;;;;;;6126027;23;20313;-66
2023/04/29 02:03:37;;;;;;;3.58;2.88;;;12.60;86.70;;;;;;6126633;23;20010;-67
2023/04/29 02:06:05;;;;;;;7.85;3.08;;;12.60;88.10;;;;;;6126463;23;20013;-67
2023/04/29 02:08:31;;;;;;;4.70;2.97;;;12.60;88.00;;;;;;6125841;23;20006;-67
2023/04/29 02:10:59;;;;;;;6.28;3.83;;;12.50;87.90;;;;;;6125935;23;20024;-67
2023/04/29 02:13:25;;;;;;;8.93;4.28;;;12.60;87.10;;;;;;6126328;23;20495;-67
2023/04/29 02:15:51;;;;;;;6.00;3.30;;;12.60;87.50;;;;;;6126061;23;20471;-67
2023/04/29 02:18:17;;;;;;;8.38;4.13;;;12.50;88.90;;;;;;6125900;23;20010;-68
2023/04/29 02:20:43;;;;;;;6.07;4.43;;;12.50;89.00;;;;;;6126067;23;20085;-67
2023/04/29 02:23:09;;;;;;;10.27;4.47;;;12.50;89.40;;;;;;6125848;23;20429;-68
2023/04/29 02:25:35;;;;;;;5.28;4.00;;;12.50;89.90;;;;;;6125893;23;20006;-67
2023/04/29 02:28:00;;;;;;;5.75;4.28;;;12.50;90.10;;;;;;6126040;23;20009;-67
2023/04/29 02:30:26;;;;;;;5.65;3.55;;;12.50;90.00;;;;;;6125865;23;20009;-67
2023/04/29 02:32:53;;;;;;;6.18;3.25;;;12.40;89.50;;;;;;6125897;23;20002;-67
2023/04/29 02:35:18;;;;;;;6.40;3.08;;;12.50;89.80;;;;;;6125941;23;20314;-67
2023/04/29 02:37:45;;;;;;;5.18;3.03;;;12.50;89.60;;;;;;6125936;23;20081;-66
2023/04/29 02:40:11;;;;;;;6.88;3.22;;;12.40;89.80;;;;;;6126010;23;20006;-67
2023/04/29 02:42:37;;;;;;;6.28;3.03;;;12.50;90.00;;;;;;6125575;23;20486;-67
2023/04/29 02:45:03;;;;;;;4.90;2.63;;;12.50;89.60;;;;;;6126154;23;20097;-67
2023/04/29 02:47:29;;;;;;;4.82;2.53;;;12.50;89.20;;;;;;6125976;23;20009;-67
2023/04/29 02:49:54;;;;;;;3.33;2.40;;;12.50;88.90;;;;;;6125499;23;20018;-67
2023/04/29 02:52:20;;;;;;;4.82;2.28;;;12.50;88.60;;;;;;6125469;23;20381;-67
2023/04/29 02:54:46;;;;;;;5.20;2.60;;;12.50;88.00;;;;;;6125975;23;20459;-67
2023/04/29 02:57:11;;;;;;;6.50;3.15;;;12.60;88.10;;;;;;6099894;23;20073;-67
2023/04/29 02:59:37;;;;;;;5.13;3.20;;;12.50;87.80;;;;;;6126052;23;20014;-67
2023/04/29 03:02:03;;;;;;;5.90;3.63;;;12.40;88.00;;;;;;6125727;23;20005;-66
2023/04/29 03:04:29;;;;;;;8.68;3.80;;;12.40;88.40;;;;;;6125699;23;20010;-67
2023/04/29 03:06:55;;;;;;;7.45;3.97;;;12.40;88.90;;;;;;6125955;23;20325;-67
2023/04/29 03:09:22;;;;;;;10.55;4.20;;;12.40;89.00;;;;;;6125805;23;20380;-66
2023/04/29 03:11:48;;;;;;;7.82;4.03;;;12.40;89.00;;;;;;6125653;23;19998;-67
2023/04/29 03:14:14;;;;;;;7.85;4.32;;;12.30;89.80;;;;;;6125599;23;20002;-67
2023/04/29 03:16:40;;;;;;;7.18;4.35;;;12.30;90.10;;;;;;6125810;23;20006;-68
2023/04/29 03:19:06;;;;;;;9.38;4.43;;;12.30;90.20;;;;;;6125395;23;20036;-67
2023/04/29 03:21:32;;;;;;;9.15;4.35;;;12.20;90.20;;;;;;6126031;23;20002;-67
2023/04/29 03:23:58;;;;;;;7.93;4.10;;;12.20;90.50;;;;;;6125576;23;20009;-67
2023/04/29 03:26:24;;;;;;;7.38;4.75;;;12.20;90.50;;;;;;6125686;23;19998;-67
2023/04/29 03:28:50;;;;;;;9.60;4.15;;;12.20;90.60;;;;;;6126164;23;20010;-67
2023/04/29 03:31:16;;;;;;;8.00;4.80;;;12.20;90.50;;;;;;6125425;23;20005;-67
2023/04/29 03:33:42;;;;;;;9.88;4.40;;;12.10;90.70;;;;;;6125683;23;20002;-67
2023/04/29 03:36:08;;;;;;;11.07;4.50;;;12.20;90.70;;;;;;6125823;23;20129;-67
2023/04/29 03:38:34;;;;;;;7.68;4.47;;;12.10;90.70;;;;;;6125237;23;20405;-67
2023/04/29 03:41:00;;;;;;;7.45;3.75;;;12.10;90.70;;;;;;6125554;23;20002;-67
2023/04/29 03:43:26;;;;;;;5.68;3.95;;;12.10;90.60;;;;;;6125566;23;20002;-67
2023/04/29 03:45:52;;;;;;;6.20;3.95;;;12.20;90.70;;;;;;6125742;23;20002;-66
2023/04/29 03:48:21;;;;;;;12.05;4.80;;;12.20;90.40;;;;;;6125521;23;20002;-67
2023/04/29 03:50:47;;;;;;;10.80;4.65;;;12.20;90.40;;;;;;6128546;23;20436;-67
2023/04/29 03:53:13;;;;;;;6.95;4.18;;;12.20;90.50;;;;;;6126026;23;20006;-67
2023/04/29 03:55:39;;;;;;;7.80;4.13;;;12.20;90.80;;;;;;6127441;23;20517;-67
2023/04/29 03:58:05;;;;;;;8.43;4.18;;;12.20;90.60;;;;;;6127541;23;20314;-67
2023/04/29 04:00:31;;;;;;;7.15;4.30;;;12.10;90.60;;;;;;6127443;23;20077;-68
2023/04/29 04:02:59;;;;;;;7.25;3.90;;;12.20;90.90;;;;;;6127292;23;20002;-67
2023/04/29 04:05:25;;;;;;;6.53;4.32;;;12.20;90.80;;;;;;6127465;23;20085;-67
2023/04/29 04:07:52;;;;;;;8.98;4.15;;;12.20;91.00;;;;;;6127486;23;20005;-67
2023/04/29 04:10:18;;;;;;;13.65;4.90;;;12.20;90.90;;;;;;6127428;23;20006;-67
2023/04/29 04:12:44;;;;;;;8.23;4.32;;;12.20;90.80;;;;;;6127364;23;20459;-67
2023/04/29 04:15:10;;;;;;;7.03;4.03;;;12.10;90.70;;;;;;6127373;23;20006;-68
2023/04/29 04:17:35;;;;;;;7.57;4.15;;;12.10;90.80;;;;;;6126791;23;20476;-67
2023/04/29 04:20:01;;;;;;;6.65;4.40;;;12.10;90.70;;;;;;6126878;23;20390;-67
2023/04/29 04:22:27;;;;;;;7.40;3.92;;;12.10;90.90;;;;;;6127072;23;20001;-67
2023/04/29 04:24:56;;;;;;;8.30;4.22;;;12.10;90.90;;;;;;6127069;23;20428;-67
2023/04/29 04:27:22;;;;;;;5.88;3.75;;;12.10;91.30;;;;;;6126951;23;20024;-67
2023/04/29 04:29:52;;;;;;;6.68;4.63;;;12.00;91.70;;;;;;6126912;23;20010;-68
2023/04/29 04:32:17;;;;;;;8.95;4.60;;;12.00;91.90;;;;;;6126943;23;20018;-68
2023/04/29 04:34:43;;;;;;;8.82;4.53;;;12.00;91.90;;;;;;6126803;23;20009;-67
2023/04/29 04:37:09;;;;;;;7.22;4.55;;;11.90;92.10;;;;;;6127002;23;20005;-67
2023/04/29 04:39:35;;;;;;;6.03;4.10;;;12.00;92.50;;;;;;6126667;23;20014;-67
2023/04/29 04:42:02;;;;;;;7.82;4.38;;;12.00;92.40;;;;;;6126866;23;19998;-67
2023/04/29 04:44:28;;;;;;;10.57;9.48;;;12.00;92.50;;;;;;6126909;23;20121;-67
2023/04/29 04:46:54;;;;;;;6.88;4.90;;;12.00;92.60;;;;;;6126796;23;20030;-67
2023/04/29 04:49:20;;;;;;;6.32;5.63;;;12.00;92.50;;;;;;6127088;23;20065;-68
2023/04/29 04:51:46;;;;;;;6.25;4.30;;;12.00;92.40;;;;;;6126343;23;20022;-67
2023/04/29 04:54:12;;;;;;;6.97;4.60;;;12.10;92.40;;;;;;6127181;23;20014;-67
2023/04/29 04:56:38;;;;;;;11.70;4.57;;;12.10;92.50;;;;;;6126875;23;20441;-66
2023/04/29 04:59:03;;;;;;;6.90;4.10;;;12.10;92.30;;;;;;6126430;23;20017;-67
2023/04/29 05:01:29;;;;;;;8.50;4.40;;;12.20;92.50;;;;;;6126836;23;20009;-67
2023/04/29 05:03:56;;;;;;;8.23;4.38;;;12.20;92.20;;;;;;6126802;23;20013;-67
2023/04/29 05:06:21;;;;;;;9.57;3.80;;;12.10;92.00;;;;;;6126635;23;20024;-67
2023/04/29 05:08:47;;;;;;;6.90;3.60;;;12.20;92.60;;;;;;6126581;23;20476;-67
2023/04/29 05:11:20;;;;;;;7.95;3.60;;;12.20;92.80;;;;;;6126760;23;20417;-67
2023/04/29 05:13:46;;;;;;;7.68;3.47;;;12.20;92.40;;;;;;6126466;23;20069;-67
2023/04/29 05:16:12;;;;;;;6.07;3.45;;;12.20;92.20;;;;;;6126563;23;20500;-67
2023/04/29 05:18:38;;;;;;;7.55;3.55;;;12.20;92.00;;;;;;6126285;23;20014;-67
2023/04/29 05:21:04;;;;;;;8.95;3.38;;;12.20;91.80;;;;;;6126588;23;20073;-67
2023/04/29 05:23:30;;;;;;;6.60;3.60;;;12.30;91.90;;;;;;6126486;23;20002;-67
2023/04/29 05:25:56;;;;;;;7.22;3.70;;;12.30;92.30;;;;;;6126749;23;20309;-67
2023/04/29 05:28:22;;;;;;;7.68;4.32;;;12.30;91.70;;;;;;6126778;23;20006;-67
2023/04/29 05:30:50;;;;;;;7.15;3.70;;;12.30;91.90;;;;;;6126363;23;20002;-67
2023/04/29 05:33:16;;;;;;;10.77;5.85;;;12.30;91.90;;;;;;6126243;23;20002;-67
2023/04/29 05:35:42;;;;;;;13.13;7.68;;;12.40;91.60;;;;;;6126512;23;20321;-66
2023/04/29 05:38:08;;;;;;;15.00;8.63;;;12.40;91.70;;;;;;6126473;23;20010;-67
2023/04/29 05:40:34;;;;;;;11.82;7.63;;;12.40;91.70;;;;;;6126491;23;20081;-67
2023/04/29 05:42:59;;;;;;;12.93;8.35;;;12.40;92.00;;;;;;6126245;23;20006;-67
2023/04/29 05:45:25;;;;;;;13.90;7.63;;;12.50;92.10;;;;;;6126468;23;20010;-67
2023/04/29 05:47:51;;;;;;;11.68;7.28;;;12.40;92.30;;;;;;6126498;23;20034;-67
2023/04/29 05:50:17;;;;;;;13.85;7.97;;;12.40;92.20;;;;;;6125965;23;20361;-67
2023/04/29 05:52:42;;;;;;;12.30;7.57;;;12.50;92.30;;;;;;6126413;23;20041;-67
2023/04/29 05:55:09;;;;;;;10.00;7.00;;;12.50;92.30;;;;;;6126012;23;20009;-67
2023/04/29 05:57:35;;;;;;;9.70;5.55;;;12.50;92.40;;;;;;6126505;23;20045;-67
2023/04/29 06:00:03;;;;;;;10.85;5.78;;;12.60;92.40;;;;;;6125943;23;20017;-67
2023/04/29 06:02:28;;;;;;;10.07;4.60;;;12.60;92.20;;;;;;6126179;23;20082;-66
2023/04/29 06:04:54;;;;;;;11.50;4.70;;;12.60;92.30;;;;;;6126137;23;20029;-68
2023/04/29 06:07:20;;;;;;;8.70;4.50;;;12.60;92.20;;;;;;6125819;23;20006;-67
2023/04/29 06:09:46;;;;;;;9.15;4.22;;;12.70;92.20;;;;;;6125798;23;20002;-67
2023/04/29 06:12:12;;;;;;;6.45;3.53;;;12.70;92.30;;;;;;6125863;23;20009;-67
2023/04/29 06:14:37;;;;;;;5.95;3.95;;;12.80;92.50;;;;;;6126086;23;20006;-67
2023/04/29 06:17:03;;;;;;;8.38;3.42;;;12.80;92.20;;;;;;6125273;23;20093;-67
2023/04/29 06:19:31;;;;;;;10.20;3.95;;;12.80;92.40;;;;;;6125292;23;20009;-67
2023/04/29 06:21:57;;;;;;;9.40;4.00;;;12.90;91.70;;;;;;6125534;23;20041;-67
2023/04/29 06:24:23;;;;;;;5.13;3.90;;;13.00;91.50;;;;;;6125986;23;20340;-67
2023/04/29 06:26:48;;;;;;;6.93;4.15;;;13.00;91.60;;;;;;6125762;23;20009;-67
2023/04/29 06:29:15;;;;;;;8.43;3.83;;;13.00;91.90;;;;;;6125960;23;20017;-67
2023/04/29 06:31:41;;;;;;;10.90;3.55;;;13.00;91.80;;;;;;6125952;23;20306;-67
2023/04/29 06:34:06;;;;;;;7.03;3.40;;;13.10;91.80;;;;;;6126100;23;20009;-67
2023/04/29 06:36:32;;;;;;;8.15;3.45;;;13.10;91.60;;;;;;6125803;23;20002;-67
2023/04/29 06:38:58;;;;;;;10.27;3.83;;;13.10;91.70;;;;;;6125362;23;20096;-67
2023/04/29 06:41:24;;;;;;;9.05;3.38;;;13.10;91.70;;;;;;6125712;23;19998;-67
2023/04/29 06:43:50;;;;;;;7.95;3.72;;;13.10;91.70;;;;;;6125682;23;20006;-67
2023/04/29 06:46:16;;;;;;;5.90;3.47;;;13.20;91.60;;;;;;6126160;23;20010;-67
2023/04/29 06:48:41;;;;;;;8.07;3.53;;;13.20;91.50;;;;;;6125975;23;20432;-67
2023/04/29 06:51:07;;;;;;;6.50;3.13;;;13.20;91.50;;;;;;6125509;23;20110;-67
2023/04/29 06:53:33;;;;;;;7.55;4.07;;;13.30;91.40;;;;;;6125359;23;20006;-67
2023/04/29 06:55:59;;;;;;;11.23;3.88;;;13.30;91.10;;;;;;6125309;23;20002;-67
2023/04/29 06:58:24;;;;;;;6.85;3.58;;;13.30;91.20;;;;;;6125165;23;20053;-67
2023/04/29 07:00:51;;;;;;;5.03;2.83;;;13.30;91.20;;;;;;6099354;23;20006;-67
2023/04/29 07:03:17;;;;;;;7.00;3.80;;;13.40;91.20;;;;;;6125556;23;19998;-68
2023/04/29 07:05:47;;;;;;;10.43;3.88;;;13.40;91.20;;;;;;6125540;23;20025;-67
2023/04/29 07:08:13;;;;;;;7.30;3.45;;;13.40;91.30;;;;;;6125256;23;20408;-67
2023/04/29 07:10:40;;;;;;;4.85;3.20;;;13.50;91.30;;;;;;6125279;23;20005;-67
2023/04/29 07:13:06;;;;;;;6.63;3.35;;;13.50;91.30;;;;;;6125371;23;20077;-67
2023/04/29 07:15:36;;;;;;;8.45;3.83;;;13.50;91.30;;;;;;6125631;23;20025;-67
2023/04/29 07:18:05;;;;;;;8.18;3.10;;;13.60;91.40;;;;;;6125403;23;19998;-66
2023/04/29 07:20:31;;;;;;;7.38;3.08;;;13.70;91.20;;;;;;6125475;23;20065;-66
2023/04/29 07:22:58;;;;;;;4.90;3.33;;;13.70;90.80;;;;;;6126138;23;20316;-67
2023/04/29 07:25:25;;;;;;;11.82;3.67;;;13.70;90.90;;;;;;6125531;23;20141;-67
2023/04/29 07:27:51;;;;;;;10.68;4.40;;;13.80;90.90;;;;;;6125798;23;19998;-67
2023/04/29 07:30:16;;;;;;;11.32;3.88;;;13.80;90.70;;;;;;6127139;23;20076;-67
2023/04/29 07:32:42;;;;;;;12.27;3.85;;;13.80;90.90;;;;;;6127141;23;20010;-67
2023/04/29 07:35:08;;;;;;;11.70;4.47;;;13.90;91.30;;;;;;6127294;23;19998;-67
2023/04/29 07:37:34;;;;;;;5.97;4.00;;;13.80;91.20;;;;;;6125594;23;20076;-67
2023/04/29 07:40:00;;;;;;;11.85;4.03;;;13.90;91.40;;;;;;6123757;23;20235;-68
2023/04/29 07:42:25;;;;;;;10.85;4.32;;;13.90;91.40;;;;;;6123852;23;20006;-66
2023/04/29 07:44:51;;;;;;;7.68;4.20;;;13.90;91.20;;;;;;6125620;23;20006;-66
2023/04/29 07:47:17;;;;;;;8.52;4.43;;;13.90;91.80;;;;;;6124205;23;20159;-67
2023/04/29 07:49:43;;;;;;;8.50;4.30;;;14.00;91.80;;;;;;6124166;23;20014;-67
2023/04/29 07:52:09;;;;;;;8.40;5.20;;;14.00;91.60;;;;;;6126913;23;20510;-68
2023/04/29 07:54:37;;;;;;;7.35;4.25;;;14.00;91.40;;;;;;6127461;23;20017;-67
2023/04/29 07:57:04;;;;;;;8.98;4.13;;;14.10;91.40;;;;;;6127112;23;20021;-67
2023/04/29 07:59:31;;;;;;;8.93;4.50;;;14.10;91.50;;;;;;6127089;23;20014;-68
2023/04/29 08:01:56;;;;;;;9.90;4.45;;;14.10;91.80;;;;;;6127250;23;20437;-67
2023/04/29 08:04:23;;;;;;;8.02;4.05;;;14.10;91.80;;;;;;6126897;23;20001;-67
2023/04/29 08:06:49;;;;;;;6.95;3.55;;;14.20;91.70;;;;;;6126971;23;20009;-68
2023/04/29 08:09:15;;;;;;;6.32;3.28;;;14.20;91.60;;;;;;6126756;23;20331;-67
2023/04/29 08:11:42;;;;;;;5.82;2.70;;;14.30;92.20;;;;;;6100942;23;20038;-68
2023/04/29 08:14:07;;;;;;;5.88;3.28;;;14.30;91.60;;;;;;6127052;23;20413;-68
2023/04/29 08:16:33;;;;;;;5.18;2.45;;;14.40;91.20;;;;;;6126760;23;20053;-68
2023/04/29 08:18:59;;;;;;;6.50;2.78;;;14.40;90.90;;;;;;6126576;23;20052;-68
2023/04/29 08:21:26;;;;;;;5.80;2.90;;;14.50;90.80;;;;;;6126973;23;19998;-68
2023/04/29 08:23:52;;;;;;;7.35;4.22;;;14.60;90.70;;;;;;6126817;23;20101;-68
2023/04/29 08:26:18;;;;;;;6.45;2.85;;;14.60;90.50;;;;;;6127054;23;20088;-68
2023/04/29 08:28:44;;;;;;;6.70;3.42;;;14.70;90.20;;;;;;6126846;23;20008;-67
2023/04/29 08:31:17;;;;;;;9.85;4.00;;;14.70;90.30;;;;;;6126812;23;20010;-69
2023/04/29 08:33:43;;;;;;;6.22;3.63;;;14.80;90.80;;;;;;6126757;23;20065;-69
2023/04/29 08:36:09;;;;;;;9.00;4.15;;;14.80;90.70;;;;;;6100658;23;20369;-68
2023/04/29 08:38:34;;;;;;;8.85;4.05;;;14.80;90.80;;;;;;6127016;23;20013;-68
2023/04/29 08:41:00;;;;;;;12.93;3.72;;;14.80;91.10;;;;;;6126505;23;20010;-69
2023/04/29 08:43:26;;;;;;;8.25;3.65;;;14.90;91.60;;;;;;6126749;23;19998;-69
2023/04/29 08:45:52;;;;;;;4.40;3.33;;;15.00;91.60;;;;;;6100942;23;20002;-68
2023/04/29 08:48:18;;;;;;;12.02;4.18;;;15.00;91.20;;;;;;6127049;23;20002;-68
2023/04/29 08:50:44;;;;;;;8.63;4.10;;;15.10;91.10;;;;;;6126665;23;20014;-68
2023/04/29 08:53:11;;;;;;;10.85;3.92;;;15.10;90.90;;;;;;6127103;23;20006;-69
2023/04/29 08:55:45;;;;;;;8.00;4.13;;;15.20;90.90;;;;;;6127341;23;20102;-68
2023/04/29 08:58:12;;;;;;;9.02;3.13;;;15.20;91.00;;;;;;6127446;23;20329;-68
2023/04/29 09:00:42;;;;;;;10.13;3.75;;;15.30;91.00;;;;;;6126403;23;20001;-68
2023/04/29 09:03:17;;;;;;;8.43;3.70;;;15.30;90.60;;;;;;6126801;23;20029;-68
2023/04/29 09:05:46;;;;;;;7.45;3.33;;;15.40;90.40;;;;;;6126519;23;20037;-68
2023/04/29 09:08:12;;;;;;;10.20;3.58;;;15.40;90.20;;;;;;6126604;23;20002;-68
2023/04/29 09:10:41;;;;;;;6.45;3.50;;;15.50;90.20;;;;;;6126904;23;20002;-69
2023/04/29 09:13:07;;;;;;;7.57;3.35;;;15.60;90.00;;;;;;6126412;23;20003;-68
2023/04/29 09:15:37;;;;;;;7.25;3.58;;;15.60;89.50;;;;;;6126614;23;20064;-68
2023/04/29 09:18:02;;;;;;;7.20;2.90;;;15.70;89.20;;;;;;6126401;23;19998;-68
2023/04/29 09:20:29;;;;;;;6.88;2.55;;;15.70;89.30;;;;;;6126597;23;20009;-68
2023/04/29 09:23:00;;;;;;;6.97;2.65;;;15.80;88.40;;;;;;6100727;23;20065;-68
2023/04/29 09:25:26;;;;;;;8.43;2.90;;;15.80;87.80;;;;;;6126771;23;20512;-68
2023/04/29 09:27:52;;;;;;;4.95;2.35;;;16.00;88.80;;;;;;6126588;23;20102;-68
2023/04/29 09:30:18;;;;;;;5.40;1.88;;;16.10;88.40;;;;;;6127094;23;20002;-69
2023/04/29 09:32:46;;;;;;;8.05;2.40;;;16.30;87.00;;;;;;6127207;23;20014;-68
2023/04/29 09:35:26;;;;;;;4.85;2.03;;;16.50;86.70;;;;;;6127102;23;20378;-68
2023/04/29 09:38:12;;;;;;;6.47;2.17;;;16.70;85.80;;;;;;6126500;23;20033;-68
2023/04/29 09:40:39;;;;;;;9.73;1.85;;;16.90;83.60;;;;;;6126941;23;20017;-68
2023/04/29 09:43:13;;;;;;;3.95;1.55;;;17.00;83.30;;;;;;6126756;23;20006;-69
2023/04/29 09:45:44;;;;;;;5.32;1.60;;;17.20;79.30;;;;;;6126945;23;20349;-69
2023/04/29 09:48:11;;;;;;;5.15;1.33;;;17.30;78.40;;;;;;6126797;23;20006;-69
2023/04/29 09:50:38;;;;;;;7.57;1.80;;;17.50;77.20;;;;;;6126104;23;20337;-69
2023/04/29 09:53:08;;;;;;;5.13;1.95;;;17.50;78.50;;;;;;6126642;23;20463;-68
2023/04/29 09:55:53;;;;;;;4.60;1.30;;;17.70;79.90;;;;;;6126840;23;20020;-69
2023/04/29 09:58:35;;;;;;;3.58;1.30;;;17.80;76.40;;;;;;6126285;23;19998;-68
2023/04/29 10:01:02;;;;;;;6.15;1.50;;;17.90;73.70;;;;;;6126524;23;20010;-69
2023/04/29 10:03:34;;;;;;;5.03;1.50;;;18.00;74.30;;;;;;6126417;23;20006;-69
2023/04/29 10:06:01;;;;;;;6.70;1.27;;;18.10;73.70;;;;;;6126760;23;20013;-69
2023/04/29 10:08:28;;;;;;;4.57;1.33;;;18.10;75.60;;;;;;6126644;23;20013;-69
2023/04/29 10:10:58;;;;;;;9.18;1.55;;;18.20;74.70;;;;;;6126760;23;20080;-69
2023/04/29 10:13:28;;;;;;;4.07;1.65;;;18.30;74.10;;;;;;6126062;23;20070;-69
2023/04/29 10:16:24;;;;;;;4.72;1.40;;;18.40;73.90;;;;;;6126145;23;20002;-69
2023/04/29 10:18:55;;;;;;;5.70;1.60;;;18.50;74.20;;;;;;6126402;23;20041;-69
2023/04/29 10:21:27;;;;;;;7.57;1.60;;;18.60;75.70;;;;;;6126521;23;20009;-69
2023/04/29 10:23:55;;;;;;;3.90;1.38;;;18.60;72.80;;;;;;6126174;23;20049;-69
2023/04/29 10:26:22;;;;;;;5.38;1.58;;;18.80;72.10;;;;;;6126031;23;20448;-69
2023/04/29 10:28:50;;;;;;;5.07;1.48;;;18.80;71.30;;;;;;6126506;23;20006;-69
2023/04/29 10:31:18;;;;;;;6.25;1.60;;;18.90;72.00;;;;;;6126416;23;20452;-69
2023/04/29 10:33:45;;;;;;;5.95;1.85;;;19.00;71.80;;;;;;6126704;23;20006;-69
2023/04/29 10:36:11;;;;;;;4.05;1.67;;;19.20;71.10;;;;;;6126204;23;20013;-70
2023/04/29 10:38:47;;;;;;;9.27;1.80;;;19.20;68.90;;;;;;6126826;23;20025;-69
2023/04/29 10:41:23;;;;;;;6.55;1.50;;;19.40;69.00;;;;;;6100364;23;20006;-69
2023/04/29 10:43:52;;;;;;;6.63;1.70;;;19.40;70.10;;;;;;6126471;23;20400;-69
2023/04/29 10:46:21;;;;;;;7.22;2.28;;;19.60;69.70;;;;;;6126201;23;20097;-69
2023/04/29 10:48:48;;;;;;;5.93;2.17;;;19.60;68.10;;;;;;6125728;23;20005;-69
2023/04/29 10:51:28;;;;;;;8.80;1.98;;;19.80;69.10;;;;;;6125864;23;20048;-69
2023/04/29 10:54:01;;;;;;;6.88;2.38;;;19.90;66.70;;;;;;6126303;23;19998;-70
2023/04/29 10:56:40;;;;;;;6.93;2.20;;;19.90;67.30;;;;;;6126008;23;20005;-69
2023/04/29 10:59:11;;;;;;;8.27;2.10;;;20.00;67.90;;;;;;6126143;23;20053;-69
2023/04/29 11:01:53;;;;;;;6.63;2.10;;;20.10;66.40;;;;;;6126156;23;20002;-69
2023/04/29 11:04:20;;;;;;;6.18;2.00;;;20.20;65.50;;;;;;6125777;23;20006;-69
2023/04/29 11:06:54;;;;;;;6.05;2.90;;;20.20;62.80;;;;;;6126463;23;20002;-69
2023/04/29 11:09:23;;;;;;;5.57;2.38;;;20.20;63.60;;;;;;6125958;23;20093;-69
2023/04/29 11:12:04;;;;;;;7.65;2.20;;;20.20;63.20;;;;;;6125852;23;20026;-69
2023/04/29 11:14:36;;;;;;;5.80;2.72;;;20.40;65.60;;;;;;6125912;23;20010;-69
2023/04/29 11:17:06;;;;;;;4.65;2.38;;;20.50;62.70;;;;;;6126124;23;20069;-69
2023/04/29 11:19:50;;;;;;;17.00;3.70;;;20.60;63.40;;;;;;6125946;23;20010;-69
2023/04/29 11:22:23;;;;;;;5.47;2.45;;;20.70;60.60;;;;;;6099788;23;20010;-69
2023/04/29 11:25:01;;;;;;;6.88;2.85;;;20.70;61.30;;;;;;6125192;23;20488;-69
2023/04/29 11:27:39;;;;;;;6.93;2.45;;;20.80;62.30;;;;;;6125610;23;20006;-68
2023/04/29 11:30:06;;;;;;;5.78;2.35;;;20.90;61.20;;;;;;6125587;23;20009;-69
2023/04/29 11:32:41;;;;;;;6.53;2.58;;;20.90;61.70;;;;;;6125736;23;20009;-68
2023/04/29 11:35:15;;;;;;;9.93;2.50;;;21.00;61.40;;;;;;6122165;23;20152;-69
2023/04/29 11:37:42;;;;;;;6.13;3.15;;;21.00;62.10;;;;;;6122406;23;20444;-69
2023/04/29 11:40:10;;;;;;;9.90;4.07;;;21.00;60.00;;;;;;6122905;23;20016;-69
2023/04/29 11:42:41;;;;;;;7.38;3.15;;;21.10;60.40;;;;;;6125175;23;20054;-69
2023/04/29 11:45:07;;;;;;;6.95;2.85;;;21.10;61.10;;;;;;6125159;23;20376;-69
2023/04/29 11:47:33;;;;;;;6.45;2.47;;;21.20;59.00;;;;;;6125194;23;19998;-69
2023/04/29 11:50:04;;;;;;;5.50;2.50;;;21.20;58.70;;;;;;6124782;23;20336;-69
2023/04/29 11:52:30;;;;;;;4.88;2.10;;;21.20;58.50;;;;;;6125102;23;20388;-69
2023/04/29 11:54:58;;;;;;;7.80;2.53;;;21.20;58.40;;;;;;6124949;23;20026;-69
2023/04/29 11:57:24;;;;;;;5.03;2.53;;;21.30;58.50;;;;;;6125091;23;20012;-69
2023/04/29 11:59:50;;;;;;;5.35;2.42;;;21.40;58.10;;;;;;6125302;23;20041;-69
2023/04/29 12:02:16;;;;;;;4.65;2.67;;;21.50;58.40;;;;;;6125755;23;19998;-69
2023/04/29 12:04:48;;;;;;;9.98;3.00;;;21.60;57.50;;;;;;6124747;23;20005;-69
2023/04/29 12:07:17;;;;;;;8.85;3.15;;;21.60;57.30;;;;;;6125167;23;20010;-68
2023/04/29 12:09:44;;;;;;;7.38;3.80;;;21.60;56.00;;;;;;6125235;23;20010;-68
2023/04/29 12:12:10;;;;;;;9.45;3.42;;;21.50;56.50;;;;;;6125365;23;20081;-68
2023/04/29 12:14:37;;;;;;;6.70;3.10;;;21.50;57.10;;;;;;6125620;23;20006;-69
2023/04/29 12:17:03;;;;;;;6.15;3.22;;;21.60;56.50;;;;;;6127000;23;20033;-69
2023/04/29 12:19:29;;;;;;;7.57;3.95;;;21.70;56.20;;;;;;6100921;23;20111;-69
2023/04/29 12:21:58;;;;;;;7.22;3.42;;;21.70;55.80;;;;;;6127168;23;20045;-69
2023/04/29 12:24:24;;;;;;;6.30;2.70;;;21.80;56.50;;;;;;6127155;23;20081;-69
2023/04/29 12:26:49;;;;;;;9.07;3.70;;;21.90;59.40;;;;;;6126808;23;20038;-69
2023/04/29 12:29:15;;;;;;;7.20;3.13;;;22.10;56.70;;;;;;6098889;23;20018;-69
2023/04/29 12:31:42;;;;;;;7.85;3.20;;;22.10;54.70;;;;;;6123263;23;20002;-70
2023/04/29 12:34:08;;;;;;;7.15;3.20;;;22.20;54.60;;;;;;6124889;23;20433;-70
2023/04/29 12:36:33;;;;;;;10.55;3.17;;;22.10;54.40;;;;;;6126689;23;20029;-69
2023/04/29 12:39:00;;;;;;;7.38;3.03;;;22.10;54.60;;;;;;6127024;23;20029;-69
2023/04/29 12:41:40;;;;;;;7.25;3.20;;;22.10;55.10;;;;;;6126568;23;20440;-70
2023/04/29 12:44:09;;;;;;;8.50;3.38;;;22.20;54.80;;;;;;6126988;23;20002;-68
2023/04/29 12:46:40;;;;;;;9.07;4.47;;;22.20;54.80;;;;;;6126336;23;20006;-69
2023/04/29 12:49:06;;;;;;;10.43;4.88;;;22.30;54.70;;;;;;6126913;23;20006;-69